Flight Track Log - Related Links

Times and Time Zones

All times are in EDT time to prevent confusion due to time zone crossing. See the UAL203 flight status page for this flight to view local times or setup timezone preferences in your user account.


Time Position Orientation Groundspeed Altitude Reporting Facility
EDT Latitude Longitude Course Direction KTS MPH feet Rate Location/Type
Thu 02:26:01 PM 34.0500 -117.6333 90° East 170 196 2,200  Level Southern California TRACON
Thu 02:27:01 PM 34.0000 -117.6833 220° Southwest 234 269 4,100 1,870 Climbing Southern California TRACON
Thu 02:28:00 PM 33.7701 -117.4112 145° Southeast  Level FlightAware Approximate
Thu 02:28:35 PM 33.9161 -117.6122 145° Southeast 271 312 7,000  Level Los Angeles Center
Thu 02:29:00 PM 33.7167 -117.3136 90° East  Level FlightAware Approximate
Thu 02:29:49 PM 33.8731 -117.5342 124° Southeast 277 319 7,200  Level Los Angeles Center
Thu 02:30:00 PM 33.7163 -117.1825 121° Southeast  Level FlightAware Approximate
Thu 02:30:52 PM 33.8353 -117.4311 114° Southeast 287 330 9,900  Level Los Angeles Center
Thu 02:31:00 PM 33.7000 -117.0460 90° East  Level FlightAware Approximate
Thu 02:31:54 PM 33.8078 -117.3256 107° East 333 383 10,400  Level Los Angeles Center
Thu 02:32:56 PM 33.7753 -117.2014 107° East 387 445 11,900 1,597 Climbing Los Angeles Center
Thu 02:33:58 PM 33.7414 -117.0756 108° East 396 456 13,700 1,872 Climbing Los Angeles Center
Thu 02:35:01 PM 33.7003 -116.9194 108° East 409 471 15,800 1,632 Climbing Los Angeles Center
Thu 02:36:03 PM 33.6836 -116.8017 100° East 411 473 17,100 1,403 Climbing Los Angeles Center
Thu 02:37:05 PM 33.6692 -116.6319 96° East 425 489 18,700 1,355 Climbing Los Angeles Center
Thu 02:38:07 PM 33.6561 -116.4867 96° East 435 501 19,900 1,161 Climbing Los Angeles Center
Thu 02:39:09 PM 33.6433 -116.3389 96° East 443 510 21,100 882 Climbing Los Angeles Center
Thu 02:40:23 PM 33.6300 -116.1867 96° East 455 524 21,900 788 Climbing Los Angeles Center
Thu 02:41:26 PM 33.6203 -115.9994 94° East 463 533 22,900 864 Climbing Los Angeles Center
Thu 02:42:28 PM 33.6142 -115.8422 93° East 469 540 23,700 968 Climbing Los Angeles Center
Thu 02:43:30 PM 33.6064 -115.6508 93° East 476 548 24,900 1,065 Climbing Los Angeles Center
Thu 02:44:32 PM 33.5983 -115.4917 93° East 480 552 25,900 1,016 Climbing Los Angeles Center
Thu 02:45:34 PM 33.5908 -115.3361 93° East 470 541 27,000 1,161 Climbing Los Angeles Center
Thu 02:46:36 PM 33.5706 -115.1844 99° East 462 532 28,300 1,104 Climbing Los Angeles Center
Thu 02:47:39 PM 33.5478 -115.0342 100° East 458 527 29,300 1,008 Climbing Los Angeles Center
Thu 02:48:41 PM 33.5256 -114.8831 100° East 462 532 30,400 1,161 Climbing Los Angeles Center
Thu 02:49:43 PM 33.4997 -114.7036 100° East 456 525 31,700 1,065 Climbing Los Angeles Center
Thu 02:50:45 PM 33.4786 -114.5553 100° East 454 522 32,600 823 Climbing Los Angeles Center
Thu 02:51:47 PM 33.4550 -114.4069 101° East 454 522 33,400 726 Climbing Los Angeles Center
Thu 02:52:49 PM 33.4339 -114.2581 100° East 456 525 34,100 643 Climbing Los Angeles Center
Thu 02:54:07 PM 33.4047 -114.0547 100° East 460 529 34,900 386 Climbing Albuquerque Center
Thu 02:55:09 PM 33.3811 -113.9058 101° East 458 527 35,000 48 Climbing Albuquerque Center
Thu 02:56:11 PM 33.3578 -113.7561 101° East 458 527 35,000 -49 Level Albuquerque Center
Thu 02:57:12 PM 33.3353 -113.6067 100° East 456 525 34,900 -49 Descending Albuquerque Center
Thu 02:58:14 PM 33.3111 -113.4575 101° East 456 525 34,900  Level Albuquerque Center
Thu 02:59:16 PM 33.2869 -113.3100 101° East 454 522 34,900 48 Level Albuquerque Center
Thu 03:00:18 PM 33.2586 -113.1322 101° East 453 521 35,000 49 Climbing Albuquerque Center
Thu 03:01:19 PM 33.2347 -112.9819 101° East 455 524 35,000  Level Albuquerque Center
Thu 03:02:21 PM 33.2103 -112.8294 101° East 462 532 35,000  Level Albuquerque Center
Thu 03:03:23 PM 33.1858 -112.6806 101° East 459 528 35,000  Level Albuquerque Center
Thu 03:04:25 PM 33.1611 -112.5381 102° East 454 522 35,000 -48 Level Albuquerque Center
Thu 03:05:27 PM 33.1353 -112.3831 101° East 459 528 34,900  Descending Albuquerque Center
Thu 03:06:28 PM 33.1061 -112.2083 101° East 466 536 35,000 49 Climbing Albuquerque Center
Thu 03:07:30 PM 33.0808 -112.0589 101° East 464 534 35,000  Level Albuquerque Center
Thu 03:08:32 PM 33.0561 -111.9094 101° East 463 533 35,000  Level Albuquerque Center
Thu 03:09:34 PM 33.0303 -111.7619 102° East 459 528 35,000  Level Albuquerque Center
Thu 03:10:36 PM 33.0058 -111.6136 101° East 459 528 35,000  Level Albuquerque Center
Thu 03:11:38 PM 32.9794 -111.4656 102° East 460 529 35,000  Level Albuquerque Center
Thu 03:12:39 PM 32.9483 -111.2853 102° East 465 535 35,000  Level Albuquerque Center
Thu 03:13:41 PM 32.9219 -111.1358 102° East 465 535 35,000  Level Albuquerque Center
Thu 03:14:43 PM 32.8942 -110.9872 103° East 462 532 35,000  Level Albuquerque Center
Thu 03:15:45 PM 32.8686 -110.8369 101° East 465 535 35,000  Level Albuquerque Center
Thu 03:16:47 PM 32.8400 -110.6903 103° East 461 531 35,000  Level Albuquerque Center
Thu 03:17:49 PM 32.8144 -110.5422 102° East 459 528 35,000  Level Albuquerque Center
Thu 03:18:51 PM 32.7817 -110.3658 102° East 457 526 35,000  Level Albuquerque Center
Thu 03:19:53 PM 32.7550 -110.2183 102° East 458 527 35,000  Level Albuquerque Center
Thu 03:20:54 PM 32.7275 -110.0706 102° East 460 529 35,000  Level Albuquerque Center
Thu 03:21:56 PM 32.6958 -109.9208 104° East 466 536 35,000  Level Albuquerque Center
Thu 03:22:58 PM 32.6728 -109.7728 100° East 461 531 35,000  Level Albuquerque Center
Thu 03:24:00 PM 32.6400 -109.6244 105° East 463 533 35,000 -48 Level Albuquerque Center
Thu 03:25:02 PM 32.6008 -109.4486 105° East 463 533 34,900  Descending Albuquerque Center
Thu 03:26:04 PM 32.5728 -109.3022 103° East 460 529 35,000  Climbing Albuquerque Center
Thu 03:27:06 PM 32.5453 -109.1550 102° East 459 528 34,900 -49 Descending Albuquerque Center
Thu 03:28:07 PM 32.5167 -109.0075 103° East 460 529 34,900 49 Level Albuquerque Center
Thu 03:29:09 PM 32.4878 -108.8600 103° East 461 531 35,000  Climbing Albuquerque Center
Thu 03:30:11 PM 32.4622 -108.7122 102° East 461 531 34,900  Descending Albuquerque Center
Thu 03:31:13 PM 32.4267 -108.5369 103° East 458 527 35,000 48 Climbing Albuquerque Center
Thu 03:32:15 PM 32.3972 -108.3911 103° East 458 527 35,000 -48 Level Albuquerque Center
Thu 03:33:17 PM 32.3692 -108.2456 103° East 457 526 34,900  Descending Albuquerque Center
Thu 03:34:19 PM 32.3389 -108.0969 104° East 463 533 35,000 48 Climbing Albuquerque Center
Thu 03:35:21 PM 32.3081 -107.9503 104° East 464 534 35,000  Level Albuquerque Center
Thu 03:36:22 PM 32.2781 -107.8036 104° East 462 532 35,000 -49 Level Albuquerque Center
Thu 03:37:24 PM 32.2419 -107.6286 104° East 461 531 34,900  Descending Albuquerque Center
Thu 03:38:26 PM 32.2153 -107.5019 104° East 460 529 35,000 48 Climbing Albuquerque Center
Thu 03:39:28 PM 32.1775 -107.3278 104° East 460 529 35,000  Level Albuquerque Center
Thu 03:40:30 PM 32.1511 -107.1917 103° East 464 534 35,000 -48 Level Albuquerque Center
Thu 03:41:32 PM 32.1211 -107.0475 104° East 461 531 34,900 -48 Descending Albuquerque Center
Thu 03:42:34 PM 32.0839 -106.8742 104° East 459 528 34,900  Level Albuquerque Center
Thu 03:43:35 PM 32.0528 -106.7308 104° East 457 526 34,900 49 Level Albuquerque Center
Thu 03:44:37 PM 32.0217 -106.5864 104° East 458 527 35,000 48 Climbing Albuquerque Center
Thu 03:45:39 PM 31.9903 -106.4428 104° East 454 522 35,000 -48 Level Albuquerque Center
Thu 03:46:41 PM 31.9592 -106.2997 104° East 454 522 34,900  Descending Albuquerque Center
Thu 03:47:43 PM 31.9203 -106.1594 108° East 453 521 35,000 387 Climbing Albuquerque Center
Thu 03:48:45 PM 31.8736 -106.0033 109° East 447 514 35,700 677 Climbing Albuquerque Center
Thu 03:49:47 PM 31.8336 -105.8642 109° East 450 518 36,400 585 Climbing Albuquerque Center
Thu 03:50:48 PM 31.7928 -105.7247 109° East 451 519 36,900 293 Climbing Albuquerque Center
Thu 03:51:50 PM 31.7511 -105.5853 109° East 452 520 37,000 48 Climbing Albuquerque Center
Thu 03:52:52 PM 31.7108 -105.4464 109° East 449 517 37,000  Level Albuquerque Center
Thu 03:53:54 PM 31.6614 -105.2797 109° East 450 518 37,000  Level Albuquerque Center
Thu 03:54:56 PM 31.6211 -105.1414 109° East 447 514 37,000  Level Albuquerque Center
Thu 03:55:58 PM 31.5783 -105.0031 110° East 449 517 37,000  Level Albuquerque Center
Thu 03:57:00 PM 31.5397 -104.8703 109° East 435 501 37,000  Level Albuquerque Center
Thu 03:58:02 PM 31.4989 -104.7356 110° East 434 499 37,000  Level Albuquerque Center
Thu 03:59:04 PM 31.4586 -104.6011 109° East 436 502 37,000  Level Albuquerque Center
Thu 04:00:06 PM 31.4183 -104.4658 109° East 439 505 37,000  Level Albuquerque Center
Thu 04:01:08 PM 31.3672 -104.3047 110° East 439 505 37,000  Level Albuquerque Center
Thu 04:02:10 PM 31.3272 -104.1706 109° East 438 504 37,000  Level Albuquerque Center
Thu 04:03:12 PM 31.2842 -104.0356 110° East 440 506 37,000 -48 Level Albuquerque Center
Thu 04:04:14 PM 31.2422 -103.9014 110° East 441 507 36,900 -48 Descending Albuquerque Center
Thu 04:05:16 PM 31.2022 -103.7694 109° East 434 499 36,900  Level Albuquerque Center
Thu 04:06:18 PM 31.1592 -103.6356 111° Southeast 437 503 36,900 48 Level Albuquerque Center
Thu 04:07:20 PM 31.1181 -103.5019 110° East 438 504 37,000 49 Climbing Albuquerque Center
Thu 04:08:21 PM 31.0664 -103.3394 110° East 442 509 37,000  Level Albuquerque Center
Thu 04:09:23 PM 31.0203 -103.1925 110° East 443 510 37,000  Level Albuquerque Center
Thu 04:10:25 PM 30.9850 -103.0836 111° Southeast 442 509 37,000  Level Albuquerque Center
Thu 04:11:27 PM 30.9358 -102.9233 110° East 441 507 37,000  Level Albuquerque Center
Thu 04:12:29 PM 30.9003 -102.7881 107° East 440 506 37,000  Level Albuquerque Center
Thu 04:13:31 PM 30.8631 -102.6525 108° East 440 506 37,000  Level Albuquerque Center
Thu 04:14:33 PM 30.8269 -102.5181 107° East 438 504 37,000  Level Albuquerque Center
Thu 04:15:35 PM 30.7903 -102.3831 108° East 439 505 37,000  Level Albuquerque Center
Thu 04:16:24 PM 30.7583 -102.2650 107° East 439 505 37,000  Level Houston Center
Thu 04:17:26 PM 30.7208 -102.1306 108° East 438 504 37,000 -48 Level Houston Center
Thu 04:18:28 PM 30.6833 -101.9969 108° East 437 503 36,900 -48 Descending Houston Center
Thu 04:19:30 PM 30.6464 -101.8631 108° East 437 503 36,900 48 Level Houston Center
Thu 04:20:32 PM 30.6017 -101.7006 108° East 440 506 37,000 48 Climbing Houston Center
Thu 04:21:35 PM 30.5639 -101.5669 108° East 439 505 37,000  Level Houston Center
Thu 04:22:37 PM 30.5253 -101.4333 109° East 438 504 37,000  Level Houston Center
Thu 04:23:39 PM 30.4875 -101.2981 108° East 439 505 37,000 -48 Level Houston Center
Thu 04:24:41 PM 30.4486 -101.1664 109° East 436 502 36,900 -48 Descending Houston Center
Thu 04:25:43 PM 30.4050 -101.0058 107° East 436 502 36,900 48 Level Houston Center
Thu 04:26:45 PM 30.3661 -100.8733 109° East 435 501 37,000  Climbing Houston Center
Thu 04:27:47 PM 30.3281 -100.7400 108° East 437 503 36,900  Descending Houston Center
Thu 04:28:50 PM 30.2886 -100.6075 109° East 436 502 37,000 48 Climbing Houston Center
Thu 04:29:52 PM 30.2508 -100.4728 108° East 437 503 37,000  Level Houston Center
Thu 04:30:54 PM 30.2125 -100.3369 108° East 440 506 37,000  Level Houston Center
Thu 04:31:56 PM 30.1739 -100.1989 108° East 439 505 37,000 -48 Level Houston Center
Thu 04:32:58 PM 30.1325 -100.0608 109° East 445 512 36,900 -48 Descending Houston Center
Thu 04:34:00 PM 30.0831 -99.9033 110° East 435 501 36,900 48 Level Houston Center
Thu 04:35:02 PM 30.0428 -99.7692 109° East 440 506 37,000 48 Climbing Houston Center
Thu 04:36:04 PM 30.0022 -99.6350 109° East 442 509 37,000  Level Houston Center
Thu 04:37:07 PM 29.9633 -99.5019 109° East 441 507 37,000  Level Houston Center
Thu 04:38:09 PM 29.9239 -99.3697 109° East 437 503 37,000 -48 Level Houston Center
Thu 04:39:11 PM 29.8836 -99.2378 109° East 436 502 36,900  Descending Houston Center
Thu 04:40:13 PM 29.8336 -99.0742 109° East 439 505 37,000 48 Climbing Houston Center
Thu 04:41:15 PM 29.7919 -98.9425 110° East 440 506 37,000  Level Houston Center
Thu 04:42:17 PM 29.7519 -98.8103 109° East 439 505 37,000  Level Houston Center
Thu 04:43:19 PM 29.7086 -98.6694 109° East 433 498 37,000 -48 Level Houston Center
Thu 04:44:21 PM 29.6703 -98.5433 109° East 434 499 36,900  Descending Houston Center
Thu 04:45:24 PM 29.6497 -98.3847 98° East 450 518 37,000 48 Climbing Houston Center
Thu 04:46:26 PM 29.6481 -98.2442 91° East 438 504 37,000  Level Houston Center
Thu 04:47:28 PM 29.6489 -98.1058 90° East 434 499 37,000  Level Houston Center
Thu 04:48:30 PM 29.6408 -97.9542 93° East 441 507 37,000  Level Houston Center
Thu 04:49:32 PM 29.6342 -97.8158 93° East 441 507 37,000  Level Houston Center
Thu 04:50:34 PM 29.6275 -97.6747 93° East 442 509 37,000 -435 Level Houston Center
Thu 04:51:36 PM 29.6206 -97.5344 93° East 441 507 36,100 -919 Descending Houston Center
Thu 04:52:38 PM 29.6128 -97.3942 94° East 440 506 35,100 -1,008 Descending Houston Center
Thu 04:53:41 PM 29.6053 -97.2511 93° East 445 512 34,000 -1,488 Descending Houston Center
Thu 04:54:43 PM 29.5969 -97.0797 93° East 444 511 32,000 -2,274 Descending Houston Center
Thu 04:55:45 PM 29.5897 -96.9342 93° East 451 519 29,300 -3,097 Descending Houston Center
Thu 04:56:47 PM 29.5814 -96.7850 94° East 459 528 25,600 -3,194 Descending Houston Center
Thu 04:57:49 PM 29.5728 -96.6383 94° East 457 526 22,700 -3,048 Descending Houston Center
Thu 04:58:51 PM 29.5650 -96.4944 94° East 450 518 19,300 -3,194 Descending Houston Center
Thu 04:59:53 PM 29.5561 -96.3536 94° East 444 511 16,100 -3,048 Descending Houston Center
Thu 05:00:55 PM 29.5481 -96.2206 94° East 422 486 13,000 -2,083 Descending Houston Center
Thu 05:01:54 PM 29.5831 -96.0906 73° East 394 453 11,900 -912 Descending Houston Center
Thu 05:03:00 PM 29.6406 -95.9794 59° Northeast 397 457 11,100 -844 Descending Houston Center
Thu 05:04:02 PM 29.6950 -95.8694 60° Northeast 397 457 10,100 -532 Descending Houston Center
Thu 05:05:04 PM 29.7506 -95.7597 60° Northeast 396 456 10,000 -145 Descending Houston Center
Thu 05:06:06 PM 29.8047 -95.6519 60° Northeast 313 360 9,800 -884 Descending Houston Center
Thu 05:07:13 PM 29.8492 -95.5594 61° Northeast 289 333 8,100 -1,547 Descending Houston Center
Thu 05:08:14 PM 29.8903 -95.4822 58° Northeast 287 330 6,500 -1,008 Descending Houston Center
Thu 05:09:12 PM 29.8958 -95.4025 85° East 283 326 6,100 -250 Descending Houston Center
Thu 05:10:14 PM 29.8969 -95.3119 89° East 281 323 6,000 -720 Descending Houston Center
Thu 05:11:17 PM 29.8961 -95.2208 91° East 282 325 4,600 -1,584 Descending Houston Center
Thu 05:12:19 PM 29.8978 -95.1342 89° East 275 316 2,700 -1,268 Descending Houston Center
Thu 05:13:20 PM 29.9617 -95.1169 13° North 221 254 2,000 -689 Descending Houston Center

Login

Don't have an account? Register now (free) for customized features, flight alerts, and more!